DW8219 Hasbrouck Heights NJ US current weather conditions

sailwx.info

Wind from 224 at 3 knots gusting 6

Air temperature 22.8° C
Dewpoint 21.4° C

Last reported at 2020-Jul-12 03:04 UTC.
Time now 2020-Jul-12 03:17 UTC

Location: N 40°51' W 074°05'.
View on Google Maps.

See reports from other nearby stations

  
Tides and Currents Weather Stations Pressure Air Temp Water Temp Dewpoint Dewpoint Depression Visibility Wind Speed Wind Dir Waves Ship Positions
date/time (UTC)wind fromknots sea level pressurealtimeterstation pressurevisibilityair tempwater tempwave heightnotes
2020-Jul-12 03:04 224 3 gusting 6 22.8
2020-Jul-12 02:59 224 3 gusting 8 22.8
2020-Jul-12 02:54 223 4 gusting 10 22.8
2020-Jul-12 02:49 232 6 gusting 11 22.8
2020-Jul-12 02:44 221 2 gusting 7 22.8
2020-Jul-12 02:39 224 1 gusting 5 22.8
2020-Jul-12 02:34 226 22.8
2020-Jul-12 02:29 226 22.8
2020-Jul-12 02:24 226 22.8
2020-Jul-12 02:19 226 22.8
2020-Jul-12 02:14 234 22.8
2020-Jul-12 02:09 234 22.8
2020-Jul-12 02:04 234 22.8
2020-Jul-12 01:59 234 22.8
2020-Jul-12 01:54 234 0 gusting 1 23.3
2020-Jul-12 01:49 234 23.3
2020-Jul-12 01:44 234 23.3
2020-Jul-12 01:39 234 23.3
2020-Jul-12 01:34 234 23.3
2020-Jul-12 01:29 234 23.3
2020-Jul-12 01:24 234 23.3
2020-Jul-12 01:19 234 23.3
2020-Jul-12 01:14 234 23.3
2020-Jul-12 01:09 234 23.3
2020-Jul-12 01:04 234 23.3
2020-Jul-12 00:59 234 1 gusting 5 23.3
2020-Jul-12 00:54 232 0 gusting 2 23.3
2020-Jul-12 00:49 230 0 gusting 1 23.3
2020-Jul-12 00:44 230 1 gusting 4 23.3
2020-Jul-12 00:39 204 1 gusting 5 23.3
2020-Jul-12 00:34 219 1 gusting 4 23.3
2020-Jul-12 00:29 225 0 gusting 4 23.3
2020-Jul-12 00:24 222 1 gusting 2 23.3
2020-Jul-12 00:19 220 2 gusting 5 23.3
2020-Jul-12 00:14 252 0 gusting 2 23.3
2020-Jul-12 00:09 233 5 gusting 8 23.3
2020-Jul-12 00:04 241 1 gusting 4 23.3
2020-Jul-11 23:59 213 1 gusting 2 23.3
2020-Jul-11 23:54 212 2 gusting 6 23.3
2020-Jul-11 23:49 180 3 gusting 8 23.9
2020-Jul-11 23:44 180 3 gusting 7 23.9
2020-Jul-11 23:39 167 4 gusting 8 23.3
2020-Jul-11 23:34 162 2 gusting 6 23.3
2020-Jul-11 23:29 162 4 gusting 7 23.3
2020-Jul-11 23:24 181 5 gusting 10 23.9
2020-Jul-11 23:19 203 2 gusting 6 23.3
2020-Jul-11 23:14 190 2 gusting 6 23.9
2020-Jul-11 23:09 181 5 gusting 11 23.9
2020-Jul-11 23:04 174 7 gusting 12 24.4
2020-Jul-11 22:59 208 6 gusting 10 24.4
2020-Jul-11 22:54 213 6 gusting 14 25.0
2020-Jul-11 22:49 176 5 gusting 11 25.6
2020-Jul-11 22:44 174 9 gusting 15 27.2
2020-Jul-11 22:39 192 4 gusting 10 27.8
2020-Jul-11 22:34 198 4 gusting 8 27.8
2020-Jul-11 22:29 189 3 gusting 7 27.8
2020-Jul-11 22:24 185 3 gusting 6 27.8
2020-Jul-11 22:19 188 4 gusting 8 27.8
2020-Jul-11 22:14 203 5 gusting 10 27.8
2020-Jul-11 22:09 211 4 gusting 7 28.3
2020-Jul-11 22:04 185 2 gusting 7 28.3
2020-Jul-11 21:59 172 5 gusting 10 28.3
2020-Jul-11 21:54 127 2 gusting 6 28.9
2020-Jul-11 21:49 158 6 gusting 12 28.9
2020-Jul-11 21:44 168 7 gusting 11 28.9
2020-Jul-11 21:39 162 5 gusting 13 28.3
2020-Jul-11 21:34 185 2 gusting 7 28.3
2020-Jul-11 21:29 165 5 gusting 10 28.3
2020-Jul-11 21:24 177 6 gusting 11 28.9
2020-Jul-11 21:19 143 6 gusting 12 28.9
2020-Jul-11 21:14 135 4 gusting 10 28.9
2020-Jul-11 21:09 143 4 gusting 11 28.9
2020-Jul-11 21:04 158 6 gusting 11 28.9
2020-Jul-11 20:59 161 6 gusting 10 29.4
2020-Jul-11 20:54 148 2 gusting 10 28.9
2020-Jul-11 20:49 174 4 gusting 12 28.9
2020-Jul-11 20:44 146 6 gusting 10 28.9
2020-Jul-11 20:39 155 6 gusting 10 28.9
2020-Jul-11 20:34 156 4 gusting 11 28.3
2020-Jul-11 20:29 169 5 gusting 10 28.3
2020-Jul-11 20:24 159 5 gusting 10 27.2
2020-Jul-11 20:19 159 5 gusting 10 27.2
2020-Jul-11 20:14 141 2 gusting 7 27.2
2020-Jul-11 20:09 150 4 gusting 10 26.7
2020-Jul-11 20:04 123 1 gusting 5 27.2
2020-Jul-11 19:59 068 0 gusting 2 27.2
2020-Jul-11 19:54 058 1 gusting 6 27.2
2020-Jul-11 19:49 133 0 gusting 2 26.7
2020-Jul-11 19:44 134 1 gusting 6 26.7
2020-Jul-11 19:39 151 1 gusting 4 26.1
2020-Jul-11 19:34 177 2 gusting 6 26.1
2020-Jul-11 19:29 182 0 gusting 2 25.6
2020-Jul-11 19:24 183 0 gusting 1 25.0
2020-Jul-11 19:19 183 0 gusting 2 24.4
2020-Jul-11 19:14 184 1 gusting 2 24.4
2020-Jul-11 19:09 183 23.9
2020-Jul-11 19:04 186 2 gusting 5 24.4
2020-Jul-11 18:59 193 1 gusting 8 25.0
2020-Jul-11 18:54 217 5 gusting 10 25.6
2020-Jul-11 18:49 227 2 gusting 7 25.6
2020-Jul-11 18:44 136 2 gusting 8 26.1
2020-Jul-11 18:39 128 2 gusting 7 26.1
2020-Jul-11 18:34 061 0 gusting 6 26.1
2020-Jul-11 18:29 055 0 gusting 4 26.7
2020-Jul-11 18:24 039 2 gusting 5 27.2
2020-Jul-11 18:19 134 6 gusting 10 27.8
2020-Jul-11 18:14 131 5 gusting 10 28.3
2020-Jul-11 18:09 135 4 gusting 8 28.3
2020-Jul-11 18:04 141 4 gusting 7 28.3
2020-Jul-11 17:59 138 2 gusting 7 28.3
2020-Jul-11 17:54 140 6 gusting 8 28.3
2020-Jul-11 17:49 150 6 gusting 10 28.3
2020-Jul-11 17:44 167 6 gusting 10 28.9
2020-Jul-11 17:39 230 3 gusting 6 28.9
2020-Jul-11 17:34 162 5 gusting 13 28.9
2020-Jul-11 17:29 165 5 gusting 10 28.9
2020-Jul-11 17:24 164 4 gusting 8 28.9
2020-Jul-11 17:19 171 2 gusting 7 28.9
2020-Jul-11 17:14 147 5 gusting 11 28.9
2020-Jul-11 17:09 211 5 gusting 10 28.9
2020-Jul-11 17:04 179 4 gusting 10 28.9
2020-Jul-11 16:59 148 2 gusting 7 28.9
2020-Jul-11 16:54 172 4 gusting 10 28.9
2020-Jul-11 16:49 188 5 gusting 8 28.3
2020-Jul-11 16:44 168 3 gusting 7 28.3
2020-Jul-11 16:39 165 5 gusting 10 28.3
2020-Jul-11 16:34 194 6 gusting 10 28.3
2020-Jul-11 16:29 166 4 gusting 7 28.3
2020-Jul-11 16:24 138 5 gusting 10 28.3
2020-Jul-11 16:19 178 3 gusting 8 28.3
2020-Jul-11 16:14 157 6 gusting 11 28.3
2020-Jul-11 16:09 162 4 gusting 7 28.3
2020-Jul-11 16:04 170 4 gusting 10 28.3
2020-Jul-11 15:59 148 6 gusting 10 28.9
2020-Jul-11 15:54 138 4 gusting 8 28.9
2020-Jul-11 15:49 144 4 gusting 10 28.3
2020-Jul-11 15:44 179 3 gusting 10 27.8
2020-Jul-11 15:39 154 2 gusting 10 27.8
2020-Jul-11 15:34 132 4 gusting 10 27.8
2020-Jul-11 15:29 173 4 gusting 10 27.8
2020-Jul-11 15:24 126 5 gusting 10 27.8
2020-Jul-11 15:19 182 3 gusting 7 27.2
2020-Jul-11 15:14 163 4 gusting 10 27.2
2020-Jul-11 15:09 180 4 gusting 7 27.2
2020-Jul-11 15:04 210 3 gusting 6 27.2
2020-Jul-11 14:59 169 3 gusting 6 27.2
2020-Jul-11 14:54 179 4 gusting 10 27.2
2020-Jul-11 14:49 220 4 gusting 6 27.2
2020-Jul-11 14:44 181 2 gusting 7 27.2
2020-Jul-11 14:39 186 4 gusting 8 27.2
2020-Jul-11 14:34 206 1 gusting 7 27.2
2020-Jul-11 14:29 221 4 gusting 6 27.2
2020-Jul-11 14:24 182 4 gusting 7 27.2
2020-Jul-11 14:19 157 4 gusting 10 27.2
2020-Jul-11 14:14 134 5 gusting 10 27.2
2020-Jul-11 14:09 195 4 gusting 7 26.7
2020-Jul-11 14:04 157 4 gusting 7 26.7
2020-Jul-11 13:59 168 2 gusting 6 26.7
2020-Jul-11 13:54 188 3 gusting 8 26.7
2020-Jul-11 13:49 200 5 gusting 10 26.7
2020-Jul-11 13:44 166 5 gusting 7 26.7
2020-Jul-11 13:39 222 5 gusting 6 26.1
2020-Jul-11 13:34 207 2 gusting 5 26.1
2020-Jul-11 13:29 150 5 gusting 6 26.1
2020-Jul-11 13:24 176 2 gusting 7 26.1
2020-Jul-11 13:19 220 2 gusting 6 26.1
2020-Jul-11 13:14 206 5 gusting 10 26.1
2020-Jul-11 13:09 196 4 gusting 11 25.6
2020-Jul-11 13:04 167 3 gusting 8 25.6
2020-Jul-11 12:59 166 2 gusting 6 25.0
2020-Jul-11 12:54 206 4 gusting 8 25.0
2020-Jul-11 12:49 173 5 gusting 11 25.6
2020-Jul-11 12:44 245 1 gusting 6 25.6
2020-Jul-11 12:39 200 2 gusting 6 25.0
2020-Jul-11 12:34 198 2 gusting 6 25.0
2020-Jul-11 12:29 149 4 gusting 10 25.0
2020-Jul-11 12:24 230 3 gusting 7 24.4
2020-Jul-11 12:19 174 3 gusting 7 24.4
2020-Jul-11 12:14 213 3 gusting 6 24.4
2020-Jul-11 12:09 162 2 gusting 6 23.9
2020-Jul-11 12:04 207 3 gusting 6 23.9
2020-Jul-11 11:59 153 2 gusting 5 23.9
2020-Jul-11 11:54 202 1 gusting 2 23.9
2020-Jul-11 11:49 202 1 gusting 2 23.9
2020-Jul-11 11:44 210 1 gusting 5 23.9
2020-Jul-11 11:39 205 2 gusting 5 23.3
2020-Jul-11 11:34 224 2 gusting 5 23.3
2020-Jul-11 11:29 215 1 gusting 6 23.3
2020-Jul-11 11:24 196 4 gusting 6 23.3
2020-Jul-11 11:19 217 2 gusting 5 23.3
2020-Jul-11 11:14 161 0 gusting 6 23.3
2020-Jul-11 11:09 186 1 gusting 2 23.3
2020-Jul-11 11:04 174 1 gusting 5 22.8
2020-Jul-11 10:59 184 1 gusting 6 22.8
2020-Jul-11 10:54 178 1 gusting 2 22.8
2020-Jul-11 10:49 167 0 gusting 6 22.8
2020-Jul-11 10:44 196 2 gusting 6 22.2
2020-Jul-11 10:39 206 2 gusting 5 22.2
2020-Jul-11 10:34 204 2 gusting 7 22.2
2020-Jul-11 10:29 190 2 gusting 5 22.2
2020-Jul-11 10:24 183 1 gusting 5 22.2
2020-Jul-11 10:19 201 0 gusting 4 22.2
2020-Jul-11 10:14 201 0 gusting 5 21.7
2020-Jul-11 10:09 203 1 gusting 5 21.7
2020-Jul-11 10:04 217 2 gusting 6 21.7
2020-Jul-11 09:59 232 1 gusting 5 21.7
2020-Jul-11 09:54 197 2 gusting 6 21.7
2020-Jul-11 09:49 205 2 gusting 7 21.7
2020-Jul-11 09:44 226 2 gusting 5 21.7
2020-Jul-11 09:39 212 1 gusting 6 21.7
2020-Jul-11 09:34 205 2 gusting 6 21.7
2020-Jul-11 09:29 207 1 gusting 4 21.7
2020-Jul-11 09:24 230 3 gusting 7 21.7
2020-Jul-11 09:19 242 2 gusting 6 21.7
2020-Jul-11 09:14 219 2 gusting 6 21.7
2020-Jul-11 09:09 195 2 gusting 6 21.7
2020-Jul-11 09:04 223 4 gusting 7 21.7
2020-Jul-11 08:59 213 2 gusting 6 21.7
2020-Jul-11 08:54 197 4 gusting 7 22.2
2020-Jul-11 08:49 202 5 gusting 11 22.2
2020-Jul-11 08:44 234 5 gusting 10 22.2
2020-Jul-11 08:39 208 6 gusting 10 22.2
2020-Jul-11 08:34 245 4 gusting 10 22.2
2020-Jul-11 08:29 211 4 gusting 8 22.2
2020-Jul-11 08:24 232 5 gusting 12 22.2
2020-Jul-11 08:19 197 7 gusting 13 22.2
2020-Jul-11 08:14 213 6 gusting 11 22.2
2020-Jul-11 08:09 196 6 gusting 12 22.2
2020-Jul-11 08:04 219 7 gusting 13 22.2
2020-Jul-11 07:59 225 6 gusting 11 22.2
2020-Jul-11 07:54 210 6 gusting 11 22.2
2020-Jul-11 07:49 211 7 gusting 15 22.2
2020-Jul-11 07:44 218 7 gusting 13 22.2
2020-Jul-11 07:39 198 6 gusting 10 22.2
2020-Jul-11 07:34 236 7 gusting 13 22.2
2020-Jul-11 07:29 215 7 gusting 13 22.2
2020-Jul-11 07:24 199 7 gusting 15 22.2
2020-Jul-11 07:19 217 6 gusting 12 22.2
2020-Jul-11 07:14 213 7 gusting 12 22.2
2020-Jul-11 07:09 216 6 gusting 13 22.2
2020-Jul-11 07:04 196 6 gusting 13 22.2
2020-Jul-11 06:59 217 7 gusting 14 22.2
2020-Jul-11 06:54 201 5 gusting 13 22.2
2020-Jul-11 06:49 187 8 gusting 17 22.2
2020-Jul-11 06:44 200 7 gusting 13 22.2
2020-Jul-11 06:39 220 8 gusting 14 22.2
2020-Jul-11 06:34 215 7 gusting 14 22.2
2020-Jul-11 06:29 203 7 gusting 18 22.2
2020-Jul-11 06:24 228 9 gusting 15 22.2
2020-Jul-11 06:19 201 8 gusting 15 22.2
2020-Jul-11 06:14 225 7 gusting 18 22.2
2020-Jul-11 06:09 203 6 gusting 15 22.2
2020-Jul-11 06:04 216 7 gusting 14 22.2
2020-Jul-11 05:59 217 7 gusting 12 22.2
2020-Jul-11 05:54 203 6 gusting 13 22.2
2020-Jul-11 05:49 214 8 gusting 17 22.2
2020-Jul-11 05:44 224 7 gusting 20 22.2
2020-Jul-11 05:39 203 6 gusting 17 22.2
2020-Jul-11 05:34 205 8 gusting 18 22.2
2020-Jul-11 05:29 192 8 gusting 19 22.8
2020-Jul-11 05:24 212 6 gusting 12 22.8
2020-Jul-11 05:19 199 5 gusting 13 22.8
2020-Jul-11 05:14 197 6 gusting 10 22.8
2020-Jul-11 05:09 224 6 gusting 19 22.8
2020-Jul-11 05:04 204 6 gusting 13 22.8
2020-Jul-11 04:59 189 7 gusting 17 22.8
2020-Jul-11 04:54 191 6 gusting 12 22.8
2020-Jul-11 04:49 192 7 gusting 13 22.8
2020-Jul-11 04:44 199 7 gusting 17 22.8
2020-Jul-11 04:39 183 6 gusting 14 22.8
2020-Jul-11 04:34 196 6 gusting 15 23.3
2020-Jul-11 04:29 162 6 gusting 12 23.3
2020-Jul-11 04:24 188 5 gusting 10 23.3
2020-Jul-11 04:19 175 6 gusting 12 23.3
2020-Jul-11 04:14 174 4 gusting 7 23.3
2020-Jul-11 04:09 178 4 gusting 10 23.3
2020-Jul-11 04:04 216 5 gusting 10 23.3
2020-Jul-11 03:59 181 4 gusting 7 23.3
2020-Jul-11 03:54 196 6 gusting 17 23.3
2020-Jul-11 03:49 166 6 gusting 11 23.3
2020-Jul-11 03:44 180 5 gusting 13 23.3
2020-Jul-11 03:39 181 5 gusting 10 23.3
2020-Jul-11 03:34 167 6 gusting 14 23.3
2020-Jul-11 03:29 170 6 gusting 13 23.3
2020-Jul-11 03:24 164 6 gusting 17 23.3
2020-Jul-11 03:19 156 6 gusting 10 23.3
2020-Jul-11 03:14 160 5 gusting 10 23.3
2020-Jul-11 03:09 172 5 gusting 12 23.3
2020-Jul-11 03:04 149 7 gusting 10 23.3
2020-Jul-11 02:59 147 4 gusting 10 23.3
2020-Jul-11 02:54 150 5 gusting 10 23.3
2020-Jul-11 02:49 157 6 gusting 13 23.3
2020-Jul-11 02:44 149 4 gusting 10 23.3
2020-Jul-11 02:39 149 6 gusting 13 22.8
2020-Jul-11 02:34 139 4 gusting 12 22.8
2020-Jul-11 02:29 133 6 gusting 10 22.8
2020-Jul-11 02:24 134 5 gusting 10 22.8
2020-Jul-11 02:19 140 6 gusting 11 22.8
2020-Jul-11 02:14 131 4 gusting 12 22.8
2020-Jul-11 02:09 130 6 gusting 12 22.8
2020-Jul-11 02:04 136 3 gusting 7 22.8
2020-Jul-11 01:59 136 1 gusting 10 22.8
2020-Jul-11 01:54 134 2 gusting 8 22.8
2020-Jul-11 01:49 092 1 gusting 6 22.8
2020-Jul-11 01:44 132 4 gusting 10 22.8
2020-Jul-11 01:39 088 3 gusting 7 22.8
2020-Jul-11 01:34 103 4 gusting 10 22.8
2020-Jul-11 01:29 122 4 gusting 10 22.8
2020-Jul-11 01:24 101 2 gusting 6 22.2
2020-Jul-11 01:19 097 2 gusting 10 22.2
2020-Jul-11 01:14 098 5 gusting 10 22.2
2020-Jul-11 01:09 093 5 gusting 17 22.2
2020-Jul-11 01:04 087 2 gusting 13 22.2
2020-Jul-11 00:59 099 4 gusting 11 22.2
2020-Jul-11 00:54 091 2 gusting 8 22.8
2020-Jul-11 00:49 098 4 gusting 13 22.8
2020-Jul-11 00:44 100 4 gusting 10 22.8
2020-Jul-11 00:39 093 6 gusting 13 22.8
2020-Jul-11 00:34 091 6 gusting 15 22.8
2020-Jul-11 00:29 105 6 gusting 11 22.8
2020-Jul-11 00:24 093 6 gusting 13 22.8
2020-Jul-11 00:19 108 4 gusting 10 22.8
2020-Jul-11 00:14 102 5 gusting 12 22.8
2020-Jul-11 00:09 112 5 gusting 12 22.8
2020-Jul-11 00:04 087 5 gusting 13 22.8
2020-Jul-10 23:59 076 1 gusting 10 22.8
2020-Jul-10 23:54 105 5 gusting 13 22.8
2020-Jul-10 23:49 107 5 gusting 11 22.8
2020-Jul-10 23:44 090 5 gusting 11 22.8
2020-Jul-10 23:39 112 5 gusting 11 22.8
2020-Jul-10 23:34 080 2 gusting 10 22.8
2020-Jul-10 23:29 108 5 gusting 12 22.8
2020-Jul-10 23:24 113 5 gusting 13 23.3
2020-Jul-10 23:19 088 5 gusting 13 23.3
2020-Jul-10 23:14 132 2 gusting 12 23.3
2020-Jul-10 23:09 120 4 gusting 17 23.3
2020-Jul-10 23:04 110 5 gusting 14 23.3
2020-Jul-10 22:59 105 7 gusting 13 23.3
2020-Jul-10 22:54 101 7 gusting 20 23.3
2020-Jul-10 22:49 111 6 gusting 15 23.3
2020-Jul-10 22:44 082 6 gusting 24 23.3
2020-Jul-10 22:39 104 5 gusting 13 23.3
2020-Jul-10 22:34 078 4 gusting 10 23.3
2020-Jul-10 22:29 094 6 gusting 19 23.3
2020-Jul-10 22:24 092 6 gusting 17 23.3
2020-Jul-10 22:19 084 5 gusting 17 23.3
2020-Jul-10 22:14 102 6 gusting 17 23.3
2020-Jul-10 22:09 096 6 gusting 12 23.3
2020-Jul-10 22:04 097 6 gusting 13 23.3
2020-Jul-10 21:59 114 6 gusting 13 23.3
2020-Jul-10 21:54 079 11 gusting 19 23.3
2020-Jul-10 21:49 083 6 gusting 13 23.3
2020-Jul-10 21:44 114 3 gusting 10 23.3
2020-Jul-10 21:39 103 5 gusting 13 23.3
2020-Jul-10 21:34 100 4 gusting 10 22.8
2020-Jul-10 21:29 075 3 gusting 10 22.8
2020-Jul-10 21:24 079 4 gusting 11 22.8
2020-Jul-10 21:19 094 3 gusting 10 22.8
2020-Jul-10 21:14 136 3 gusting 12 22.8
2020-Jul-10 21:09 076 5 gusting 12 22.8
2020-Jul-10 21:04 057 4 gusting 13 22.8
2020-Jul-10 20:59 096 6 gusting 14 22.8
2020-Jul-10 20:54 091 6 gusting 19 22.8
2020-Jul-10 20:49 073 5 gusting 11 22.8
2020-Jul-10 20:44 077 7 gusting 15 22.8
2020-Jul-10 20:39 061 6 gusting 13 22.8
2020-Jul-10 20:34 091 5 gusting 12 22.8
2020-Jul-10 20:29 051 3 gusting 10 22.8
2020-Jul-10 20:24 039 3 gusting 13 22.8
2020-Jul-10 20:19 069 6 gusting 17 22.8
2020-Jul-10 20:14 064 8 gusting 19 22.8
2020-Jul-10 20:09 069 4 gusting 13 22.8
2020-Jul-10 20:04 073 4 gusting 21 22.8
2020-Jul-10 19:59 075 4 gusting 12 22.8
2020-Jul-10 19:54 058 5 gusting 12 22.8
2020-Jul-10 19:49 054 6 gusting 13 22.8
2020-Jul-10 19:44 076 5 gusting 12 22.8
2020-Jul-10 19:39 052 6 gusting 17 22.8
2020-Jul-10 19:34 058 8 gusting 17 22.8
2020-Jul-10 19:29 043 5 gusting 11 22.8
2020-Jul-10 19:24 059 6 gusting 11 22.8
2020-Jul-10 19:19 054 3 gusting 8 22.8
2020-Jul-10 19:14 056 5 gusting 11 22.8
2020-Jul-10 19:09 044 5 gusting 12 23.3
2020-Jul-10 19:04 046 6 gusting 15 23.3
2020-Jul-10 18:59 040 6 gusting 15 23.3
2020-Jul-10 18:54 039 6 gusting 15 23.3
2020-Jul-10 18:49 048 8 gusting 17 23.3
2020-Jul-10 18:44 068 5 gusting 14 23.3
2020-Jul-10 18:39 047 6 gusting 11 23.3
2020-Jul-10 18:34 020 4 gusting 11 23.3
2020-Jul-10 18:29 052 5 gusting 10 23.3
2020-Jul-10 18:24 055 6 gusting 13 23.3
2020-Jul-10 18:19 070 5 gusting 13 23.3
2020-Jul-10 18:14 069 6 gusting 14 23.3
2020-Jul-10 18:09 056 5 gusting 12 23.3
2020-Jul-10 18:04 061 6 gusting 18 23.3
2020-Jul-10 17:59 032 5 gusting 13 23.3
2020-Jul-10 17:54 025 5 gusting 15 23.3
2020-Jul-10 17:49 059 6 gusting 13 23.3
2020-Jul-10 17:44 051 6 gusting 15 23.3
2020-Jul-10 17:39 057 5 gusting 10 23.3
2020-Jul-10 17:34 025 4 gusting 13 23.3
2020-Jul-10 17:29 074 3 gusting 8 23.3
2020-Jul-10 17:24 043 2 gusting 13 23.3
2020-Jul-10 17:19 047 6 gusting 12 23.3
2020-Jul-10 17:14 042 6 gusting 12 23.3
2020-Jul-10 17:09 052 6 gusting 13 23.3
2020-Jul-10 17:04 045 3 gusting 10 23.3
2020-Jul-10 16:59 064 0 gusting 5 23.3
2020-Jul-10 16:54 079 2 gusting 6 23.3
2020-Jul-10 16:49 066 4 gusting 10 23.3
2020-Jul-10 16:44 076 5 gusting 13 23.3
2020-Jul-10 16:39 048 2 gusting 6 23.9
2020-Jul-10 16:34 082 4 gusting 11 23.3
2020-Jul-10 16:29 034 3 gusting 11 23.9
2020-Jul-10 16:24 060 3 gusting 8 23.9
2020-Jul-10 16:19 052 3 gusting 8 23.9
2020-Jul-10 16:14 095 4 gusting 12 23.9
2020-Jul-10 16:09 054 2 gusting 10 23.9
2020-Jul-10 16:04 029 2 gusting 8 23.9
2020-Jul-10 15:59 059 4 gusting 10 23.9
2020-Jul-10 15:54 042 2 gusting 10 23.9
2020-Jul-10 15:49 032 2 gusting 7 23.9
2020-Jul-10 15:44 100 3 gusting 6 23.9
2020-Jul-10 15:39 056 3 gusting 7 23.9
2020-Jul-10 15:34 061 4 gusting 10 23.9
2020-Jul-10 15:29 064 3 gusting 11 23.9
2020-Jul-10 15:24 065 2 gusting 13 24.4
2020-Jul-10 15:19 088 3 gusting 10 24.4
2020-Jul-10 15:14 088 6 gusting 10 24.4
2020-Jul-10 15:09 082 5 gusting 12 24.4
2020-Jul-10 15:04 094 4 gusting 10 24.4
2020-Jul-10 14:59 075 5 gusting 12 24.4
2020-Jul-10 14:54 055 5 gusting 13 24.4
2020-Jul-10 14:49 056 4 gusting 10 24.4
2020-Jul-10 14:44 070 4 gusting 11 24.4
2020-Jul-10 14:39 062 3 gusting 12 24.4
2020-Jul-10 14:34 102 4 gusting 10 24.4
2020-Jul-10 14:29 036 2 gusting 6 24.4
2020-Jul-10 14:24 052 5 gusting 8 24.4
2020-Jul-10 14:19 085 5 gusting 13 24.4
2020-Jul-10 14:14 072 2 gusting 8 24.4
2020-Jul-10 14:09 073 3 gusting 8 24.4
2020-Jul-10 14:04 081 4 gusting 11 24.4
2020-Jul-10 13:59 087 2 gusting 10 24.4
2020-Jul-10 13:54 060 6 gusting 12 24.4
2020-Jul-10 13:49 064 4 gusting 10 24.4
2020-Jul-10 13:44 068 4 gusting 13 24.4
2020-Jul-10 13:39 080 5 gusting 11 24.4
2020-Jul-10 13:34 060 2 gusting 8 24.4
2020-Jul-10 13:29 094 2 gusting 6 23.9
2020-Jul-10 13:24 088 4 gusting 10 23.9
2020-Jul-10 13:19 042 4 gusting 11 23.9
2020-Jul-10 13:14 031 2 gusting 6 23.9
2020-Jul-10 13:09 073 4 gusting 7 23.9
2020-Jul-10 13:04 052 4 gusting 8 23.9
2020-Jul-10 12:59 072 3 gusting 11 24.4
2020-Jul-10 12:54 080 2 gusting 10 24.4
2020-Jul-10 12:49 087 2 gusting 6 24.4
2020-Jul-10 12:44 075 4 gusting 10 23.9
2020-Jul-10 12:39 039 4 gusting 10 23.9
2020-Jul-10 12:34 041 3 gusting 10 23.9
2020-Jul-10 12:29 048 2 gusting 6 23.9
2020-Jul-10 12:24 102 3 gusting 7 23.9
2020-Jul-10 12:19 077 2 gusting 6 23.9
2020-Jul-10 12:14 079 1 gusting 6 23.9
2020-Jul-10 12:09 029 2 gusting 6 23.9
2020-Jul-10 12:04 048 2 gusting 6 23.9
2020-Jul-10 11:59 067 2 gusting 7 23.9
2020-Jul-10 11:54 087 1 gusting 8 23.9
2020-Jul-10 11:49 075 1 gusting 6 23.9
2020-Jul-10 11:44 067 2 gusting 11 23.9
2020-Jul-10 11:39 056 2 gusting 7 23.9
2020-Jul-10 11:34 096 0 gusting 6 23.9
2020-Jul-10 11:29 055 1 gusting 2 23.9
2020-Jul-10 11:24 068 1 gusting 5 23.9
2020-Jul-10 11:19 084 1 gusting 6 23.9
2020-Jul-10 11:14 098 1 gusting 6 23.9
2020-Jul-10 11:09 092 1 gusting 5 23.9
2020-Jul-10 11:04 090 1 gusting 5 23.9
2020-Jul-10 10:59 063 1 gusting 4 23.9
2020-Jul-10 10:54 049 0 gusting 4 23.9
2020-Jul-10 10:49 044 0 gusting 2 23.9
2020-Jul-10 10:44 044 0 gusting 5 23.9
2020-Jul-10 10:39 036 0 gusting 4 23.9
2020-Jul-10 10:34 057 0 gusting 2 23.9
2020-Jul-10 10:29 058 1 gusting 4 23.9
2020-Jul-10 10:24 040 1 gusting 4 23.9
2020-Jul-10 10:19 073 1 gusting 6 23.9
2020-Jul-10 10:14 064 1 gusting 5 23.9
2020-Jul-10 10:09 045 1 gusting 6 23.9
2020-Jul-10 10:04 047 1 gusting 6 23.9
2020-Jul-10 09:59 045 1 gusting 2 23.9
2020-Jul-10 09:54 040 0 gusting 4 23.9
2020-Jul-10 09:49 044 0 gusting 2 23.9
2020-Jul-10 09:44 051 1 gusting 6 23.9
2020-Jul-10 09:39 029 0 gusting 2 23.9
2020-Jul-10 09:34 023 0 gusting 2 23.9
2020-Jul-10 09:29 065 23.9
2020-Jul-10 09:24 069 0 gusting 2 23.9
2020-Jul-10 09:19 069 0 gusting 2 23.9
2020-Jul-10 09:14 052 0 gusting 2 23.9
2020-Jul-10 09:09 053 0 gusting 2 23.9
2020-Jul-10 09:04 053 0 gusting 4 23.9
2020-Jul-10 08:59 055 23.9
2020-Jul-10 08:54 056 0 gusting 2 23.9
2020-Jul-10 08:49 058 23.9
2020-Jul-10 08:44 058 0 gusting 1 23.9
2020-Jul-10 08:39 058 23.3
2020-Jul-10 08:34 059 23.3
2020-Jul-10 08:29 059 23.3
2020-Jul-10 08:24 061 23.3
2020-Jul-10 08:19 118 23.3
2020-Jul-10 08:14 144 23.3
2020-Jul-10 08:09 145 23.3
2020-Jul-10 08:04 146 23.3
2020-Jul-10 07:59 146 23.3
2020-Jul-10 07:54 146 23.3
2020-Jul-10 07:49 146 23.3
2020-Jul-10 07:44 146 23.3
2020-Jul-10 07:39 146 23.3
2020-Jul-10 07:34 146 23.3
2020-Jul-10 07:29 146 23.3
2020-Jul-10 07:24 146 23.3
2020-Jul-10 07:19 146 23.3
2020-Jul-10 07:14 146 23.9
2020-Jul-10 07:09 146 23.9
2020-Jul-10 07:04 146 23.9
2020-Jul-10 06:59 146 23.9
2020-Jul-10 06:54 146 23.9
2020-Jul-10 06:49 146 23.9
2020-Jul-10 06:44 146 23.9
2020-Jul-10 06:39 146 23.9
2020-Jul-10 06:34 146 23.9
2020-Jul-10 06:29 146 23.9
2020-Jul-10 06:24 146 23.9
2020-Jul-10 06:19 146 23.9
2020-Jul-10 06:14 146 23.9
2020-Jul-10 06:09 146 24.4
2020-Jul-10 06:04 146 24.4
2020-Jul-10 05:59 146 24.4
2020-Jul-10 05:54 146 24.4
2020-Jul-10 05:49 146 24.4
2020-Jul-10 05:44 146 23.9
2020-Jul-10 05:39 146 23.9
2020-Jul-10 05:34 146 24.4
2020-Jul-10 05:29 146 24.4
2020-Jul-10 05:24 146 24.4
2020-Jul-10 05:19 146 24.4
2020-Jul-10 05:14 146 24.4
2020-Jul-10 05:09 147 24.4
2020-Jul-10 05:04 146 0 gusting 2 24.4
2020-Jul-10 04:59 150 1 gusting 2 24.4
2020-Jul-10 04:54 153 0 gusting 2 24.4
2020-Jul-10 04:49 155 0 gusting 1 24.4
2020-Jul-10 04:44 155 24.4
2020-Jul-10 04:39 155 24.4
2020-Jul-10 04:34 155 23.9
2020-Jul-10 04:29 155 23.9
2020-Jul-10 04:24 155 23.9
2020-Jul-10 04:19 155 23.9
2020-Jul-10 04:14 155 23.9
2020-Jul-10 04:09 155 23.9
2020-Jul-10 04:04 155 23.9
2020-Jul-10 03:59 155 23.9
2020-Jul-10 03:54 155 23.9
2020-Jul-10 03:49 155 23.9
2020-Jul-10 03:44 155 24.4
2020-Jul-10 03:39 155 24.4
2020-Jul-10 03:34 155 24.4
2020-Jul-10 03:29 155 24.4
2020-Jul-10 03:24 155 24.4
2020-Jul-10 03:19 155 24.4
2020-Jul-10 03:14 155 24.4
2020-Jul-10 03:09 155 24.4
2020-Jul-10 03:04 155 25.0